Terminal Aerodrome Forecast
Issued by NWS Cleveland, OH

Home | Current Version | Previous Version | Text Only | Print | Product List | Glossary Off
Versions: 1 2 3 4 5 6 7 8 9 10 11 12 13 14 15 16 17

000
FTUS41 KCLE 261700
TAFTOL
TAF
KTOL 261739Z 2618/2718 03008KT 2SM -SN OVC025
     FM261900 02010KT 6SM -SN OVC030
     FM262000 36008KT P6SM BKN040 OVC070
     FM270000 33005KT P6SM SCT070
     FM271400 27005KT P6SM SKC=

USA.gov is the U.S. government's official web portal to all federal, state and local government web resources and services.